createdAt,value
2022-09-12T00:01:21.603Z,99920.72
2022-09-12T00:03:55.890Z,99916.13
2022-09-12T00:06:30.538Z,99924.06
2022-09-12T00:09:02.941Z,99929.31
2022-09-12T00:11:31.207Z,99918.69
2022-09-12T00:14:01.832Z,99922.09
2022-09-12T00:16:33.816Z,99918.44
2022-09-12T00:19:02.251Z,99926.34
2022-09-12T00:21:30.389Z,99922.84
2022-09-12T00:23:58.228Z,99927.19
2022-09-12T00:26:26.002Z,99928.00
2022-09-12T00:28:53.544Z,99928.91
2022-09-12T00:31:25.448Z,99921.88
2022-09-12T00:33:57.250Z,99930.75
2022-09-12T00:36:26.663Z,99931.56
2022-09-12T00:38:54.855Z,99924.50
2022-09-12T00:41:37.381Z,99931.38
2022-09-12T00:44:24.426Z,99919.84
2022-09-12T00:47:07.586Z,99926.00
2022-09-12T00:49:51.757Z,99924.97
2022-09-12T00:52:50.713Z,99920.75
2022-09-12T00:55:27.756Z,99912.78
2022-09-12T00:58:23.738Z,99918.06
2022-09-12T01:00:51.546Z,99924.22
2022-09-12T01:03:22.978Z,99922.38
2022-09-12T01:06:10.436Z,99922.31
2022-09-12T01:08:38.918Z,99922.25
2022-09-12T01:11:07.139Z,99916.94
2022-09-12T01:13:36.520Z,99925.72
2022-09-12T01:16:06.525Z,99922.25
2022-09-12T01:18:49.660Z,99919.56
2022-09-12T01:21:37.665Z,99924.84
2022-09-12T01:24:42.053Z,99920.25
2022-09-12T01:27:59.565Z,99925.59
2022-09-12T01:31:41.914Z,99920.41
2022-09-12T01:34:37.215Z,99925.59
2022-09-12T01:38:12.476Z,99921.16
2022-09-12T01:41:09.288Z,99922.97
2022-09-12T01:44:14.484Z,99927.34
2022-09-12T01:46:49.124Z,99919.34
2022-09-12T01:49:36.130Z,99920.09
2022-09-12T01:52:18.433Z,99920.94
2022-09-12T01:54:59.313Z,99916.41
2022-09-12T01:57:39.641Z,99916.28
2022-09-12T02:00:12.661Z,99914.38
2022-09-12T02:03:07.814Z,99916.09
2022-09-12T02:05:49.098Z,99914.13
2022-09-12T02:08:58.563Z,99920.25
2022-09-12T02:11:25.971Z,99913.22
2022-09-12T02:14:11.295Z,99909.50
2022-09-12T02:16:54.859Z,99907.59
2022-09-12T02:19:28.741Z,99907.59
2022-09-12T02:22:00.518Z,99920.88
2022-09-12T02:24:40.769Z,99920.88
2022-09-12T02:27:24.712Z,99913.84
2022-09-12T02:29:53.530Z,99911.16
2022-09-12T02:32:58.796Z,99916.44
2022-09-12T02:36:01.790Z,99909.38
2022-09-12T02:38:46.445Z,99913.69
2022-09-12T02:41:19.477Z,99910.25
2022-09-12T02:43:49.254Z,99910.25
2022-09-12T02:46:30.126Z,99911.03
2022-09-12T02:48:58.710Z,99905.72
2022-09-12T02:51:27.368Z,99911.91
2022-09-12T02:53:54.731Z,99915.41
2022-09-12T02:56:30.221Z,99911.88
2022-09-12T02:59:07.864Z,99908.19
2022-09-12T03:02:28.220Z,99909.03
2022-09-12T03:05:41.094Z,99907.25
2022-09-12T03:08:49.961Z,99906.31
2022-09-12T03:11:58.161Z,99903.69
2022-09-12T03:14:36.955Z,99905.34
2022-09-12T03:17:19.990Z,99906.31
2022-09-12T03:20:18.154Z,99900.84
2022-09-12T03:23:04.277Z,99906.88
2022-09-12T03:26:06.513Z,99911.22
2022-09-12T03:28:35.752Z,99905.00
2022-09-12T03:31:17.581Z,99903.09
2022-09-12T03:33:45.386Z,99904.78
2022-09-12T03:36:28.219Z,99903.69
2022-09-12T03:38:56.010Z,99907.19
2022-09-12T03:41:23.286Z,99901.97
2022-09-12T03:43:50.509Z,99897.50
2022-09-12T03:46:17.809Z,99904.63
2022-09-12T03:48:44.991Z,99900.31
2022-09-12T03:51:12.401Z,99901.19
2022-09-12T03:53:39.625Z,99903.75
2022-09-12T03:56:10.854Z,99902.75
2022-09-12T03:58:39.654Z,99904.50
2022-09-12T04:01:19.963Z,99907.19
2022-09-12T04:03:51.827Z,99910.91
2022-09-12T04:06:22.976Z,99904.78
2022-09-12T04:08:55.340Z,99912.66
2022-09-12T04:11:23.469Z,99910.06
2022-09-12T04:13:51.047Z,99913.53
2022-09-12T04:16:18.972Z,99920.41
2022-09-12T04:18:47.231Z,99912.97
2022-09-12T04:21:19.765Z,99912.84
2022-09-12T04:23:46.976Z,99918.13
2022-09-12T04:26:17.407Z,99912.91
2022-09-12T04:28:46.474Z,99919.03
2022-09-12T04:31:18.325Z,99918.13
2022-09-12T04:33:46.358Z,99919.03
2022-09-12T04:36:17.278Z,99916.97
2022-09-12T04:38:46.924Z,99917.94
2022-09-12T04:41:30.693Z,99920.50
2022-09-12T04:44:12.783Z,99930.25
2022-09-12T04:46:45.377Z,99929.38
2022-09-12T04:49:14.329Z,99931.13
2022-09-12T04:51:43.021Z,99931.03
2022-09-12T04:54:19.092Z,99926.75
2022-09-12T04:56:50.186Z,99934.75
2022-09-12T04:59:19.830Z,99936.53
2022-09-12T05:01:48.322Z,99936.59
2022-09-12T05:04:16.027Z,99935.88
2022-09-12T05:06:44.267Z,99936.03
2022-09-12T05:09:14.304Z,99936.94
2022-09-12T05:12:03.724Z,99946.69
2022-09-12T05:14:33.002Z,99944.09
2022-09-12T05:17:01.722Z,99941.69
2022-09-12T05:19:31.684Z,99941.69
2022-09-12T05:22:00.085Z,99945.19
2022-09-12T05:24:27.627Z,99954.78
2022-09-12T05:26:55.284Z,99944.09
2022-09-12T05:29:22.713Z,99950.25
2022-09-12T05:31:52.080Z,99950.19
2022-09-12T05:34:20.868Z,99955.53
2022-09-12T05:36:49.081Z,99948.66
2022-09-12T05:39:16.823Z,99950.63
2022-09-12T05:41:44.283Z,99956.13
2022-09-12T05:44:14.207Z,99954.50
2022-09-12T05:46:45.484Z,99956.50
2022-09-12T05:49:14.542Z,99965.44
2022-09-12T05:51:45.628Z,99965.63
2022-09-12T05:54:18.172Z,99962.31
2022-09-12T05:56:47.021Z,99967.81
2022-09-12T05:59:21.067Z,99970.59
2022-09-12T06:01:49.251Z,99976.91
2022-09-12T06:04:17.543Z,99970.00
2022-09-12T06:06:46.265Z,99976.34
2022-09-12T06:09:16.119Z,99969.41
2022-09-12T06:11:45.506Z,99969.50
2022-09-12T06:14:17.501Z,99969.59
2022-09-12T06:16:46.211Z,99975.06
2022-09-12T06:19:21.505Z,99967.25
2022-09-12T06:21:49.650Z,99965.56
2022-09-12T06:24:19.136Z,99966.66
2022-09-12T06:26:52.529Z,99962.44
2022-09-12T06:29:20.207Z,99962.59
2022-09-12T06:31:47.417Z,99959.19
2022-09-12T06:34:16.397Z,99961.09
2022-09-12T06:36:48.523Z,99966.50
2022-09-12T06:39:20.262Z,99954.22
2022-09-12T06:41:52.033Z,99948.16
2022-09-12T06:44:30.539Z,99947.41
2022-09-12T06:46:58.716Z,99958.91
2022-09-12T06:49:25.973Z,99947.53
2022-09-12T06:51:53.197Z,99949.44
2022-09-12T06:54:20.404Z,99952.34
2022-09-12T06:56:47.616Z,99948.94
2022-09-12T06:59:15.057Z,99953.44
2022-09-12T07:01:42.671Z,99957.13
2022-09-12T07:04:10.369Z,99961.75
2022-09-12T07:06:41.768Z,99964.53
2022-09-12T07:09:16.052Z,99962.91
2022-09-12T07:11:45.364Z,99956.88
2022-09-12T07:14:15.057Z,99953.50
2022-09-12T07:16:43.288Z,99958.94
2022-09-12T07:19:12.024Z,99965.19
2022-09-12T07:21:40.251Z,99972.44
2022-09-12T07:24:10.334Z,99969.88
2022-09-12T07:26:40.465Z,99971.69
2022-09-12T07:32:02.272Z,99971.03
2022-09-12T07:34:29.643Z,99968.34
2022-09-12T07:36:56.940Z,99971.09
2022-09-12T07:39:24.217Z,99960.56
2022-09-12T07:41:51.501Z,99965.09
2022-09-12T07:44:18.712Z,99971.38
2022-09-12T07:46:46.184Z,99967.88
2022-09-12T07:49:13.507Z,99966.13
2022-09-12T07:51:41.146Z,99975.06
2022-09-12T07:54:09.564Z,99976.84
2022-09-12T07:56:39.139Z,99968.00
2022-09-12T07:59:08.883Z,99962.69
2022-09-12T08:01:36.369Z,99969.81
2022-09-12T08:04:05.081Z,99967.16
2022-09-12T08:06:33.812Z,99968.97
2022-09-12T08:09:02.433Z,99968.97
2022-09-12T08:11:30.574Z,99972.53
2022-09-12T08:13:59.103Z,99968.06
2022-09-12T08:16:31.015Z,99976.09
2022-09-12T08:19:01.442Z,99972.56
2022-09-12T08:21:32.404Z,99966.38
2022-09-12T08:24:04.444Z,99966.41
2022-09-12T08:26:33.811Z,99971.75
2022-09-12T08:29:01.518Z,99974.41
2022-09-12T08:31:29.182Z,99979.75
2022-09-12T08:33:58.094Z,99973.53
2022-09-12T08:36:29.611Z,99980.66
2022-09-12T08:39:02.358Z,99986.88
2022-09-12T08:41:58.431Z,99980.66
2022-09-12T08:45:12.011Z,99978.88
2022-09-12T08:47:44.125Z,99973.53
2022-09-12T08:50:14.674Z,99983.34
2022-09-12T08:52:59.626Z,99987.78
2022-09-12T08:55:44.845Z,99998.47
2022-09-12T08:58:24.113Z,99997.56
2022-09-12T09:01:15.427Z,99998.47
2022-09-12T09:04:26.888Z,99994.88
2022-09-12T09:07:33.882Z,99998.41
2022-09-12T09:10:32.693Z,99992.22
2022-09-12T09:14:13.923Z,99992.19
2022-09-12T09:16:46.941Z,99995.72
2022-09-12T09:19:22.709Z,99988.59
2022-09-12T09:22:15.529Z,99994.81
2022-09-12T09:25:00.206Z,99992.09
2022-09-12T09:27:40.777Z,99992.09
2022-09-12T09:30:21.569Z,99990.34
2022-09-12T09:32:57.908Z,99998.34
2022-09-12T09:35:50.926Z,99989.44
2022-09-12T09:38:48.380Z,99990.31
2022-09-12T09:41:51.253Z,100001.06
2022-09-12T09:44:18.704Z,99988.53
2022-09-12T09:46:47.154Z,99981.34
2022-09-12T09:49:17.114Z,99980.44
2022-09-12T09:51:44.796Z,99975.00
2022-09-12T09:54:21.656Z,99972.31
2022-09-12T09:56:49.536Z,99963.44
2022-09-12T09:59:26.628Z,99961.78
2022-09-12T10:02:02.191Z,99964.22
2022-09-12T10:04:41.833Z,99966.81
2022-09-12T10:07:21.753Z,99965.00
2022-09-12T10:10:19.554Z,99967.53
2022-09-12T10:12:46.791Z,99969.94
2022-09-12T10:15:26.896Z,99953.75
2022-09-12T10:17:57.093Z,99960.09
2022-09-12T10:20:44.653Z,99960.16
2022-09-12T10:23:32.187Z,99960.97
2022-09-12T10:26:11.305Z,99953.94
2022-09-12T10:28:53.815Z,99954.91
2022-09-12T10:31:43.023Z,99951.06
2022-09-12T10:34:33.845Z,99948.22
2022-09-12T10:37:10.408Z,99943.75
2022-09-12T10:39:38.965Z,99945.44
2022-09-12T10:42:06.521Z,99945.34
2022-09-12T10:44:35.500Z,99943.97
2022-09-12T10:47:27.377Z,99945.88
2022-09-12T10:50:26.908Z,99940.31
2022-09-12T10:52:56.432Z,99941.78
2022-09-12T10:55:34.221Z,99940.34
2022-09-12T10:58:46.568Z,99934.88
2022-09-12T11:01:32.267Z,99926.03
2022-09-12T11:04:08.046Z,99929.81
2022-09-12T11:07:06.766Z,99921.06
2022-09-12T11:10:23.011Z,99930.16
2022-09-12T11:13:02.045Z,99922.22
2022-09-12T11:15:53.276Z,99935.75
2022-09-12T11:18:44.974Z,99922.78
2022-09-12T11:21:44.972Z,99919.63
2022-09-12T11:24:37.596Z,99918.31
2022-09-12T11:27:50.799Z,99920.28
2022-09-12T11:30:18.883Z,99913.41
2022-09-12T11:33:07.902Z,99916.72
2022-09-12T11:35:54.429Z,99914.88
2022-09-12T11:39:02.477Z,99904.72
2022-09-12T11:41:36.761Z,99902.34
2022-09-12T11:44:28.536Z,99894.66
2022-09-12T11:46:56.230Z,99891.91
2022-09-12T11:49:36.913Z,99898.50
2022-09-12T11:52:21.378Z,99890.00
2022-09-12T11:55:28.245Z,99900.59
2022-09-12T11:58:01.569Z,99880.50
2022-09-12T12:00:45.334Z,99887.75
2022-09-12T12:03:28.784Z,99882.16
2022-09-12T12:06:22.542Z,99882.69
2022-09-12T12:08:50.626Z,99877.44
2022-09-12T12:11:47.529Z,99873.41
2022-09-12T12:14:47.958Z,99875.25
2022-09-12T12:17:23.133Z,99870.09
2022-09-12T12:20:08.394Z,99867.56
2022-09-12T12:22:36.173Z,99867.22
2022-09-12T12:25:12.451Z,99864.66
2022-09-12T12:28:01.738Z,99852.72
2022-09-12T12:30:33.373Z,99856.13
2022-09-12T12:33:01.458Z,99856.75
2022-09-12T12:36:02.436Z,99846.94
2022-09-12T12:38:38.312Z,99846.72
2022-09-12T12:41:37.415Z,99855.28
2022-09-12T12:44:45.928Z,99852.44
2022-09-12T12:47:33.871Z,99850.69
2022-09-12T12:50:10.764Z,99843.94
2022-09-12T12:53:21.566Z,99834.94
2022-09-12T12:55:53.272Z,99831.66
2022-09-12T12:58:38.192Z,99825.22
2022-09-12T13:01:20.871Z,99827.97
2022-09-12T13:04:13.548Z,99822.75
2022-09-12T13:07:07.143Z,99822.59
2022-09-12T13:09:48.156Z,99818.50
2022-09-12T13:12:47.262Z,99815.16
2022-09-12T13:15:36.215Z,99808.81
2022-09-12T13:18:11.661Z,99804.88
2022-09-12T13:20:52.552Z,99799.72
2022-09-12T13:23:31.459Z,99791.38
2022-09-12T13:26:02.282Z,99794.69
2022-09-12T13:28:31.409Z,99795.06
2022-09-12T13:31:24.093Z,99793.78
2022-09-12T13:33:59.940Z,99785.00
2022-09-12T13:37:13.654Z,99786.09
2022-09-12T13:40:29.064Z,99769.03
2022-09-12T13:43:24.259Z,99761.63
2022-09-12T13:45:54.074Z,99758.41
2022-09-12T13:48:25.564Z,99752.94
2022-09-12T13:51:02.344Z,99747.31
2022-09-12T13:53:43.699Z,99750.66
2022-09-12T13:56:18.272Z,99741.47
2022-09-12T13:59:02.427Z,99745.91
2022-09-12T14:01:45.951Z,99740.38
2022-09-12T14:04:45.108Z,99735.94
2022-09-12T14:07:23.607Z,99742.84
2022-09-12T14:09:58.767Z,99723.81
2022-09-12T14:12:40.115Z,99732.94
2022-09-12T14:15:23.413Z,99724.44
2022-09-12T14:18:01.393Z,99719.31
2022-09-12T14:20:33.019Z,99720.31
2022-09-12T14:23:12.381Z,99713.84
2022-09-12T14:25:41.433Z,99714.81
2022-09-12T14:28:23.186Z,99711.31
2022-09-12T14:31:04.844Z,99705.69
2022-09-12T14:33:56.363Z,99696.56
2022-09-12T14:36:57.102Z,99699.81
2022-09-12T14:39:41.751Z,99695.47
2022-09-12T14:42:20.944Z,99693.59
2022-09-12T14:45:15.204Z,99691.75
2022-09-12T14:47:49.209Z,99685.59
2022-09-12T14:50:26.806Z,99687.50
2022-09-12T14:53:17.060Z,99693.47
2022-09-12T14:55:59.013Z,99687.47
2022-09-12T14:58:28.314Z,99684.75
2022-09-12T15:01:03.810Z,99675.06
2022-09-12T15:03:54.874Z,99680.13
2022-09-12T15:06:38.469Z,99673.56
2022-09-12T15:09:14.073Z,99668.84
2022-09-12T15:11:41.313Z,99668.06
2022-09-12T15:14:15.594Z,99660.53
2022-09-12T15:16:42.765Z,99665.84
2022-09-12T15:19:10.220Z,99670.38
2022-09-12T15:21:37.682Z,99668.25
2022-09-12T15:24:05.183Z,99671.31
2022-09-12T15:26:32.449Z,99672.63
2022-09-12T15:28:59.770Z,99671.78
2022-09-12T15:31:32.382Z,99664.31
2022-09-12T15:34:02.587Z,99660.38
2022-09-12T15:36:30.296Z,99653.75
2022-09-12T15:38:58.306Z,99659.75
2022-09-12T15:41:38.138Z,99657.91
2022-09-12T15:44:08.231Z,99657.34
2022-09-12T15:46:35.570Z,99656.72
2022-09-12T15:49:02.988Z,99650.19
2022-09-12T15:51:30.140Z,99650.56
2022-09-12T15:53:57.276Z,99651.13
2022-09-12T15:56:24.534Z,99662.41
2022-09-12T15:58:59.148Z,99653.19
2022-09-12T16:01:28.757Z,99649.38
2022-09-12T16:03:56.654Z,99647.50
2022-09-12T16:06:24.441Z,99642.31
2022-09-12T16:08:51.932Z,99640.94
2022-09-12T16:11:27.297Z,99644.38
2022-09-12T16:13:56.815Z,99634.00
2022-09-12T16:16:24.192Z,99634.41
2022-09-12T16:18:51.736Z,99640.16
2022-09-12T16:21:19.080Z,99640.25
2022-09-12T16:23:48.666Z,99637.38
2022-09-12T16:26:17.061Z,99637.47
2022-09-12T16:28:44.478Z,99633.94
2022-09-12T16:31:14.172Z,99637.97
2022-09-12T16:33:41.720Z,99634.69
2022-09-12T16:36:15.692Z,99633.75
2022-09-12T16:38:49.932Z,99629.53
2022-09-12T16:41:24.357Z,99621.19
2022-09-12T16:43:52.051Z,99620.41
2022-09-12T16:46:28.591Z,99625.66
2022-09-12T16:48:58.744Z,99619.63
2022-09-12T16:51:32.561Z,99622.22
2022-09-12T16:53:59.849Z,99628.88
2022-09-12T16:56:27.607Z,99622.50
2022-09-12T16:58:55.183Z,99625.72
2022-09-12T17:01:26.053Z,99623.53
2022-09-12T17:03:58.482Z,99624.94
2022-09-12T17:06:27.612Z,99624.69
2022-09-12T17:09:04.128Z,99619.41
2022-09-12T17:11:38.259Z,99622.75
2022-09-12T17:14:08.855Z,99630.66
2022-09-12T17:16:49.241Z,99621.22
2022-09-12T17:19:28.009Z,99626.13
2022-09-12T17:21:56.987Z,99628.03
2022-09-12T17:24:24.324Z,99633.44
2022-09-12T17:26:52.039Z,99636.63
2022-09-12T17:29:19.884Z,99637.34
2022-09-12T17:31:47.218Z,99635.19
2022-09-12T17:34:16.117Z,99637.47
2022-09-12T17:36:45.169Z,99638.00
2022-09-12T17:39:14.125Z,99632.41
2022-09-12T17:41:42.764Z,99641.09
2022-09-12T17:44:15.047Z,99641.59
2022-09-12T17:46:43.473Z,99638.72
2022-09-12T17:49:18.600Z,99642.75
2022-09-12T17:51:45.829Z,99638.72
2022-09-12T17:54:20.732Z,99636.50
2022-09-12T17:56:51.880Z,99643.03
2022-09-12T17:59:22.868Z,99635.34
2022-09-12T18:02:08.956Z,99641.84
2022-09-12T18:04:36.413Z,99647.38
2022-09-12T18:07:03.609Z,99657.38
2022-09-12T18:09:30.979Z,99652.13
2022-09-12T18:11:58.563Z,99654.09
2022-09-12T18:14:27.708Z,99660.53
2022-09-12T18:16:57.045Z,99667.06
2022-09-12T18:19:24.898Z,99665.41
2022-09-12T18:21:52.668Z,99669.09
2022-09-12T18:24:20.407Z,99671.88
2022-09-12T18:26:47.876Z,99676.56
2022-09-12T18:29:16.917Z,99682.06
2022-09-12T18:31:44.816Z,99691.03
2022-09-12T18:34:13.709Z,99684.06
2022-09-12T18:36:47.141Z,99685.84
2022-09-12T18:39:15.814Z,99684.16
2022-09-12T18:41:43.113Z,99689.56
2022-09-12T18:44:12.182Z,99694.97
2022-09-12T18:46:39.619Z,99705.78
2022-09-12T18:49:09.248Z,99709.44
2022-09-12T18:51:39.934Z,99707.75
2022-09-12T18:54:13.869Z,99718.56
2022-09-12T18:56:43.776Z,99713.31
2022-09-12T18:59:14.011Z,99720.56
2022-09-12T19:01:42.870Z,99727.69
2022-09-12T19:04:13.600Z,99724.22
2022-09-12T19:06:48.283Z,99726.00
2022-09-12T19:09:20.516Z,99730.47
2022-09-12T19:11:52.512Z,99726.97
2022-09-12T19:14:23.864Z,99725.25
2022-09-12T19:16:52.063Z,99728.84
2022-09-12T19:19:20.578Z,99732.47
2022-09-12T19:21:47.742Z,99731.59
2022-09-12T19:24:16.485Z,99740.50
2022-09-12T19:26:44.062Z,99742.31
2022-09-12T19:29:13.811Z,99737.03
2022-09-12T19:31:41.062Z,99742.38
2022-09-12T19:34:08.610Z,99742.38
2022-09-12T19:36:46.362Z,99743.28
2022-09-12T19:39:17.265Z,99741.50
2022-09-12T19:41:45.181Z,99737.97
2022-09-12T19:44:12.677Z,99742.47
2022-09-12T19:46:40.425Z,99752.25
2022-09-12T19:49:09.843Z,99753.22
2022-09-12T19:51:37.005Z,99752.34
2022-09-12T19:54:04.423Z,99748.84
2022-09-12T19:56:31.724Z,99746.19
2022-09-12T19:58:59.113Z,99747.03
2022-09-12T20:01:30.128Z,99759.50
2022-09-12T20:04:01.261Z,99766.59
2022-09-12T20:06:28.552Z,99765.69
2022-09-12T20:08:56.798Z,99770.16
2022-09-12T20:11:26.204Z,99769.22
2022-09-12T20:13:53.843Z,99773.66
2022-09-12T20:16:29.049Z,99774.56
2022-09-12T20:19:02.399Z,99776.31
2022-09-12T20:21:34.020Z,99777.22
2022-09-12T20:24:14.006Z,99781.66
2022-09-12T20:26:42.027Z,99779.00
2022-09-12T20:29:11.184Z,99787.00
2022-09-12T20:31:42.627Z,99778.09
2022-09-12T20:34:20.903Z,99791.41
2022-09-12T20:36:48.617Z,99795.81
2022-09-12T20:39:22.970Z,99795.81
2022-09-12T20:41:50.736Z,99791.41
2022-09-12T20:44:18.088Z,99796.72
2022-09-12T20:46:45.374Z,99800.28
2022-09-12T20:49:12.843Z,99798.50
2022-09-12T20:51:40.123Z,99797.63
2022-09-12T20:54:07.839Z,99792.28
2022-09-12T20:56:37.425Z,99802.94
2022-09-12T20:59:05.596Z,99794.94
2022-09-12T21:01:33.678Z,99802.91
2022-09-12T21:04:01.512Z,99796.66
2022-09-12T21:06:29.155Z,99793.03
2022-09-12T21:09:00.541Z,99794.81
2022-09-12T21:11:29.215Z,99796.56
2022-09-12T21:13:56.803Z,99793.91
2022-09-12T21:16:24.309Z,99794.81
2022-09-12T21:18:58.450Z,99801.91
2022-09-12T21:21:26.677Z,99801.00
2022-09-12T21:24:02.648Z,99803.66
2022-09-12T21:26:30.839Z,99801.84
2022-09-12T21:28:58.584Z,99799.19
2022-09-12T21:31:26.469Z,99794.78
2022-09-12T21:33:53.800Z,99793.84
2022-09-12T21:36:21.076Z,99793.81
2022-09-12T21:38:48.406Z,99791.13
2022-09-12T21:41:18.245Z,99788.47
2022-09-12T21:43:45.671Z,99798.19
2022-09-12T21:46:13.350Z,99796.38
2022-09-12T21:48:42.591Z,99801.66
2022-09-12T21:51:09.831Z,99814.94
2022-09-12T21:53:37.461Z,99802.53
2022-09-12T21:56:08.454Z,99806.06
2022-09-12T21:58:37.241Z,99801.59
2022-09-12T22:01:06.013Z,99806.91
2022-09-12T22:03:33.482Z,99811.31
2022-09-12T22:06:04.892Z,99810.44
2022-09-12T22:08:34.867Z,99809.53
2022-09-12T22:11:09.244Z,99811.28
2022-09-12T22:13:43.303Z,99820.13
2022-09-12T22:16:11.918Z,99819.25
2022-09-12T22:18:39.569Z,99806.88
2022-09-12T22:21:14.531Z,99813.06
2022-09-12T22:24:01.079Z,99809.47
2022-09-12T22:26:30.023Z,99811.25
2022-09-12T22:28:57.543Z,99815.69
2022-09-12T22:31:26.520Z,99811.16
2022-09-12T22:33:57.044Z,99810.25
2022-09-12T22:36:28.100Z,99804.91
2022-09-12T22:38:59.380Z,99798.69
2022-09-12T22:41:26.538Z,99807.59
2022-09-12T22:43:53.782Z,99802.25
2022-09-12T22:46:21.165Z,99804.00
2022-09-12T22:48:48.297Z,99802.19
2022-09-12T22:51:16.138Z,99807.50
2022-09-12T22:53:43.336Z,99812.81
2022-09-12T22:56:10.551Z,99812.78
2022-09-12T22:58:37.975Z,99805.63
2022-09-12T23:01:07.102Z,99818.88
2022-09-12T23:03:35.104Z,99812.72
2022-09-12T23:06:04.073Z,99810.09
2022-09-12T23:08:31.967Z,99811.84
2022-09-12T23:11:13.287Z,99816.25
2022-09-12T23:13:45.472Z,99819.75
2022-09-12T23:16:24.334Z,99816.16
2022-09-12T23:18:52.428Z,99809.91
2022-09-12T23:21:21.580Z,99817.84
2022-09-12T23:23:49.360Z,99816.91
2022-09-12T23:26:24.397Z,99819.53
2022-09-12T23:29:05.581Z,99821.22
2022-09-12T23:31:34.580Z,99810.63
2022-09-12T23:34:05.913Z,99823.00
2022-09-12T23:36:34.245Z,99809.69
2022-09-12T23:39:02.150Z,99821.16
2022-09-12T23:41:29.634Z,99815.81
2022-09-12T23:43:57.126Z,99813.13
2022-09-12T23:46:24.289Z,99810.44
2022-09-12T23:48:55.356Z,99814.00
2022-09-12T23:51:22.736Z,99812.22
2022-09-12T23:53:50.254Z,99799.81
2022-09-12T23:56:17.386Z,99806.94
2022-09-12T23:58:44.520Z,99796.31
